Aviation Digital Data Service (ADDS)

Output produced by METARs form (1155 UTC 22 March 2019)
found at http://www.aviationweather.gov/metar/data/
 
Forecast for: VLVT (VIENTIANE/WATTAY, LA)
Text: TAF VLVT 221100Z 2212/2312 09004KT 7000 FEW020 SCT050
Forecast period: 1200 UTC 22 March 2019 to 1200 UTC 23 March 2019
Forecast type: FROM: standard forecast or significant change
Winds: from the E (90 degrees) at 5 MPH (4 knots; 2.1 m/s)
Visibility: 4 miles (7 km)
Ceiling: at least 12,000 feet AGL
Clouds: few clouds at 2000 feet AGL
scattered clouds at 5000 feet AGL
Weather: no significant weather forecast for this period
Text: TEMPO 2214/2220 3000 BR SCT040
Forecast period: 1400 to 2000 UTC 22 March 2019
Forecast type: TEMPORARY: The following changes expected for less than half the time period
Visibility: 1.86 miles (2.99 km)
Ceiling: at least 12,000 feet AGL
Clouds: scattered clouds at 4000 feet AGL
Weather: BR  (mist)